Time;durP1;ratioP1;P1;durP2;ratioP2;P2;SDS_P1;SDS_P2;PMS_P1;PMS_P2;Temp;Humidity;BMP_temperature;BMP_pressure;BME280_temperature;BME280_humidity;BME280_pressure;Samples;Min_cycle;Max_cycle;Signal;HPM_P1;HPM_P2
2021/12/29 00:00:46;;;;;;;102.37;30.63;;;;;;;7.80;100.00;98838.34;5072262;28;20196;-63
2021/12/29 00:03:15;;;;;;;121.07;31.13;;;;;;;8.01;100.00;98858.41;5071924;28;20668;-62
2021/12/29 00:05:42;;;;;;;114.73;29.70;;;;;;;7.89;100.00;98832.09;5071961;28;20278;-62
2021/12/29 00:08:09;;;;;;;99.87;28.13;;;;;;;7.88;100.00;98841.56;5071978;28;20210;-61
2021/12/29 00:10:36;;;;;;;89.87;28.07;;;;;;;7.86;100.00;98856.28;5071764;28;20196;-59
2021/12/29 00:13:06;;;;;;;94.27;31.23;;;;;;;7.82;100.00;98862.41;5072001;28;20192;-59
2021/12/29 00:15:33;;;;;;;174.53;30.60;;;;;;;7.89;100.00;98858.78;5071685;28;20235;-59
2021/12/29 00:18:00;;;;;;;87.80;26.33;;;;;;;7.91;100.00;98869.88;5071779;28;20196;-59
2021/12/29 00:20:31;;;;;;;90.00;28.70;;;;;;;7.83;100.00;98861.50;5071767;28;20286;-60
2021/12/29 00:22:59;;;;;;;80.97;25.17;;;;;;;7.88;100.00;98866.56;5071731;28;20211;-59
2021/12/29 00:25:27;;;;;;;80.83;27.10;;;;;;;7.75;100.00;98853.13;5071635;28;20590;-62
2021/12/29 00:27:55;;;;;;;64.90;24.60;;;;;;;7.74;100.00;98859.19;5072068;28;20203;-60
2021/12/29 00:30:24;;;;;;;60.53;22.67;;;;;;;7.71;100.00;98850.66;5071480;28;20296;-60
2021/12/29 00:32:51;;;;;;;69.27;24.80;;;;;;;7.54;100.00;98859.75;5071593;28;20235;-60
2021/12/29 00:35:18;;;;;;;64.10;22.90;;;;;;;7.62;100.00;98852.63;5071642;28;20234;-60
2021/12/29 00:37:45;;;;;;;74.70;22.57;;;;;;;7.63;100.00;98856.06;5071511;28;20593;-59
2021/12/29 00:40:13;;;;;;;65.93;23.40;;;;;;;7.63;100.00;98851.75;5071360;28;20196;-62
2021/12/29 00:42:41;;;;;;;49.80;20.03;;;;;;;7.59;100.00;98847.53;5071225;28;20200;-62
2021/12/29 00:45:09;;;;;;;52.77;19.90;;;;;;;7.53;100.00;98844.28;5071393;28;20220;-62
2021/12/29 00:47:38;;;;;;;59.80;20.23;;;;;;;7.53;100.00;98833.97;5071168;28;20293;-62
2021/12/29 00:50:09;;;;;;;49.40;19.20;;;;;;;7.56;100.00;98842.44;5071340;28;20227;-62
2021/12/29 00:52:36;;;;;;;52.13;20.17;;;;;;;7.48;100.00;98846.13;5071033;28;20196;-62
2021/12/29 00:55:04;;;;;;;54.80;20.57;;;;;;;7.38;100.00;98849.84;5071191;28;20214;-59
2021/12/29 00:57:31;;;;;;;61.20;21.30;;;;;;;7.54;100.00;98846.84;5070848;28;20279;-60
2021/12/29 00:59:59;;;;;;;63.23;21.30;;;;;;;7.55;100.00;98842.53;5071297;28;20637;-61
2021/12/29 01:02:27;;;;;;;65.67;22.37;;;;;;;7.60;100.00;98853.56;5070460;28;20206;-60
2021/12/29 01:04:55;;;;;;;61.10;21.67;;;;;;;7.61;100.00;98866.44;5070879;28;20229;-60
2021/12/29 01:07:22;;;;;;;54.90;21.67;;;;;;;7.51;100.00;98841.75;5070959;28;20188;-60
2021/12/29 01:09:49;;;;;;;58.60;21.53;;;;;;;7.57;100.00;98869.13;5070637;28;20253;-60
2021/12/29 01:12:17;;;;;;;58.57;23.10;;;;;;;7.49;100.00;98842.66;5070959;28;20706;-59
2021/12/29 01:14:52;;;;;;;58.37;21.63;;;;;;;7.47;100.00;98834.97;5070546;28;20274;-59
2021/12/29 01:17:19;;;;;;;64.97;23.63;;;;;;;7.59;100.00;98859.59;5070653;28;20231;-62
2021/12/29 01:19:46;;;;;;;61.77;23.53;;;;;;;7.48;100.00;98856.47;5070693;28;20191;-62
2021/12/29 01:22:15;;;;;;;61.70;23.27;;;;;;;7.55;100.00;98851.13;5070611;28;20199;-62
2021/12/29 01:24:42;;;;;;;63.20;22.40;;;;;;;7.52;100.00;98842.59;5070318;28;20739;-63
2021/12/29 01:27:10;;;;;;;61.70;22.07;;;;;;;7.55;100.00;98848.53;5070478;28;20262;-63
2021/12/29 01:29:37;;;;;;;59.03;19.73;;;;;;;7.50;100.00;98850.38;5070392;28;20287;-62
2021/12/29 01:32:04;;;;;;;59.47;21.07;;;;;;;7.56;100.00;98846.78;5070520;28;20723;-62
2021/12/29 01:34:32;;;;;;;60.53;22.07;;;;;;;7.41;100.00;98829.97;5070307;28;20727;-63
2021/12/29 01:37:00;;;;;;;52.63;20.60;;;;;;;7.60;100.00;98848.38;5070258;28;20285;-62
2021/12/29 01:39:28;;;;;;;55.10;19.97;;;;;;;7.58;100.00;98842.41;5070646;28;20195;-59
2021/12/29 01:41:58;;;;;;;46.67;18.30;;;;;;;7.59;100.00;98844.97;5070235;28;20285;-60
2021/12/29 01:44:27;;;;;;;49.20;20.23;;;;;;;7.61;100.00;98837.16;5070198;28;20234;-60
2021/12/29 01:46:55;;;;;;;53.60;20.47;;;;;;;7.55;100.00;98847.69;5070419;28;20294;-60
2021/12/29 01:49:23;;;;;;;49.40;19.97;;;;;;;7.63;100.00;98838.84;5070107;28;20200;-61
2021/12/29 01:51:59;;;;;;;50.00;20.90;;;;;;;7.58;100.00;98824.34;5070105;28;20672;-60
2021/12/29 01:54:34;;;;;;;49.97;20.13;;;;;;;7.62;100.00;98842.31;5070240;28;20200;-61
2021/12/29 01:57:01;;;;;;;44.70;18.90;;;;;;;7.57;100.00;98841.56;5070336;28;20618;-60
2021/12/29 01:59:29;;;;;;;53.93;18.80;;;;;;;7.57;100.00;98845.88;5070121;28;20206;-60
2021/12/29 02:01:56;;;;;;;46.00;18.20;;;;;;;7.55;100.00;98838.19;5070063;28;20230;-59
2021/12/29 02:04:24;;;;;;;47.27;18.20;;;;;;;7.59;100.00;98838.94;5069815;28;20230;-59
2021/12/29 02:06:51;;;;;;;38.20;16.53;;;;;;;7.54;100.00;98831.34;5069862;28;20192;-59
2021/12/29 02:09:18;;;;;;;34.80;14.53;;;;;;;7.52;100.00;98829.69;5070000;28;20556;-59
2021/12/29 02:11:47;;;;;;;30.77;15.27;;;;;;;7.47;100.00;98819.47;5070071;28;20664;-59
2021/12/29 02:14:15;;;;;;;34.53;14.47;;;;;;;7.42;100.00;98815.34;5068975;28;20234;-59
2021/12/29 02:16:42;;;;;;;38.13;16.43;;;;;;;7.40;100.00;98819.69;5069816;28;20259;-62
2021/12/29 02:19:11;;;;;;;33.83;15.70;;;;;;;7.32;100.00;98824.22;5070017;28;20287;-62
2021/12/29 02:21:43;;;;;;;30.27;14.57;;;;;;;7.03;100.00;98761.31;5069783;28;20202;-61
2021/12/29 02:24:19;;;;;;;30.83;13.93;;;;;;;7.26;100.00;98820.91;5069840;28;20703;-62
2021/12/29 02:26:47;;;;;;;34.73;15.23;;;;;;;7.31;100.00;98817.34;5069770;28;20261;-59
2021/12/29 02:29:17;;;;;;;27.27;13.97;;;;;;;7.33;100.00;98831.06;5069552;28;20200;-60
2021/12/29 02:31:45;;;;;;;28.57;15.33;;;;;;;7.33;100.00;98831.94;5069990;28;20549;-62
2021/12/29 02:34:15;;;;;;;30.30;14.03;;;;;;;7.25;100.00;98821.78;5069838;28;20279;-63
2021/12/29 02:36:45;;;;;;;31.07;13.63;;;;;;;7.34;100.00;98832.75;5069749;28;20238;-60
2021/12/29 02:39:18;;;;;;;26.80;13.20;;;;;;;7.33;100.00;98821.59;5069707;28;20196;-60
2021/12/29 02:41:50;;;;;;;26.83;13.40;;;;;;;7.29;100.00;98818.25;5069609;28;20203;-60
2021/12/29 02:44:24;;;;;;;24.40;11.87;;;;;;;7.29;100.00;98819.97;5069748;28;20588;-60
2021/12/29 02:46:51;;;;;;;33.17;12.77;;;;;;;7.25;100.00;98811.47;5069432;28;20208;-61
2021/12/29 02:49:18;;;;;;;34.57;14.53;;;;;;;7.14;100.00;98823.81;5069557;28;20711;-59
2021/12/29 02:51:47;;;;;;;26.07;12.40;;;;;;;7.24;100.00;98819.25;5069534;28;20200;-59
2021/12/29 02:54:16;;;;;;;26.70;12.97;;;;;;;7.09;100.00;98805.03;5069386;28;20207;-62
2021/12/29 02:56:43;;;;;;;26.53;12.67;;;;;;;7.15;100.00;98791.94;5069395;28;20246;-62
2021/12/29 02:59:10;;;;;;;20.80;11.13;;;;;;;7.06;100.00;98793.94;5069408;28;20198;-62
2021/12/29 03:01:37;;;;;;;23.03;12.70;;;;;;;7.13;100.00;98819.53;5069414;28;20204;-62
2021/12/29 03:04:07;;;;;;;24.27;13.33;;;;;;;7.21;100.00;98822.78;5069429;28;20208;-62
2021/12/29 03:06:34;;;;;;;27.67;13.23;;;;;;;7.18;100.00;98819.41;5069216;28;20249;-64
2021/12/29 03:09:05;;;;;;;25.87;12.73;;;;;;;7.18;100.00;98825.44;5069531;28;20208;-63
2021/12/29 03:11:32;;;;;;;22.90;12.83;;;;;;;7.34;100.00;98823.25;5069549;28;20243;-61
2021/12/29 03:13:59;;;;;;;24.00;12.37;;;;;;;7.34;100.00;98831.00;5069401;28;20286;-62
2021/12/29 03:16:27;;;;;;;21.10;12.17;;;;;;;7.27;100.00;98827.75;5069179;28;20216;-62
2021/12/29 03:18:54;;;;;;;22.10;11.47;;;;;;;7.22;100.00;98828.78;5069330;28;20297;-61
2021/12/29 03:21:21;;;;;;;17.80;10.57;;;;;;;7.27;100.00;98825.19;5069075;28;20204;-61
2021/12/29 03:23:49;;;;;;;16.77;10.00;;;;;;;7.24;100.00;98825.25;5069204;28;20202;-61
2021/12/29 03:26:18;;;;;;;19.67;11.67;;;;;;;7.06;100.00;98799.94;5072410;28;20250;-62
2021/12/29 03:28:45;;;;;;;15.37;9.50;;;;;;;7.24;100.00;98827.84;5072736;28;20192;-62
2021/12/29 03:31:14;;;;;;;14.50;9.53;;;;;;;7.24;100.00;98824.41;5072687;28;20303;-62
2021/12/29 03:33:43;;;;;;;13.93;9.30;;;;;;;7.17;100.00;98815.13;5072582;28;20231;-62
2021/12/29 03:36:11;;;;;;;15.43;8.93;;;;;;;7.14;100.00;98817.78;5072371;28;20228;-62
2021/12/29 03:38:40;;;;;;;15.47;9.40;;;;;;;6.96;100.00;98790.75;5072543;28;20196;-63
2021/12/29 03:41:11;;;;;;;14.57;9.30;;;;;;;7.15;100.00;98817.75;5072672;28;20274;-61
2021/12/29 03:43:41;;;;;;;13.13;8.97;;;;;;;7.04;100.00;98813.75;5072451;28;20218;-61
2021/12/29 03:46:08;;;;;;;16.50;9.00;;;;;;;6.96;100.00;98820.84;5072228;28;20220;-63
2021/12/29 03:48:38;;;;;;;10.77;8.30;;;;;;;6.96;100.00;98811.38;5072867;28;20202;-63
2021/12/29 03:51:05;;;;;;;12.27;8.60;;;;;;;6.95;100.00;98806.25;5072626;28;20196;-61
2021/12/29 03:53:33;;;;;;;12.17;7.90;;;;;;;6.83;100.00;98795.38;5072621;28;20196;-61
2021/12/29 03:56:00;;;;;;;9.70;8.43;;;;;;;6.76;100.00;98795.56;5072447;28;20234;-62
2021/12/29 03:58:28;;;;;;;13.73;8.37;;;;;;;6.85;100.00;98798.75;5071958;28;20202;-62
2021/12/29 04:01:00;;;;;;;11.97;7.87;;;;;;;6.86;100.00;98794.44;5071427;28;20583;-61
2021/12/29 04:03:27;;;;;;;12.40;8.37;;;;;;;6.83;100.00;98797.94;5063053;28;20227;-62
2021/12/29 04:05:54;;;;;;;11.70;8.60;;;;;;;6.87;100.00;98796.16;5051637;28;20263;-64
2021/12/29 04:08:22;;;;;;;14.43;9.23;;;;;;;6.88;100.00;98795.25;5061124;28;20223;-63
2021/12/29 04:10:49;;;;;;;15.17;9.30;;;;;;;6.91;100.00;98796.00;5071558;28;20230;-60
2021/12/29 04:13:16;;;;;;;14.00;9.00;;;;;;;6.99;100.00;98798.41;5071275;28;20303;-60
2021/12/29 04:15:43;;;;;;;14.67;8.93;;;;;;;6.99;100.00;98801.00;5071054;28;20230;-60
2021/12/29 04:18:26;;;;;;;15.63;10.30;;;;;;;7.03;100.00;98804.31;5071762;28;20712;-60
2021/12/29 04:20:58;;;;;;;15.63;11.07;;;;;;;7.03;100.00;98807.75;5071435;28;20715;-61
2021/12/29 04:23:28;;;;;;;19.87;11.73;;;;;;;6.85;100.00;98777.28;5069892;28;20746;-62
2021/12/29 04:25:56;;;;;;;21.73;14.90;;;;;;;7.07;100.00;98804.22;5069463;28;20644;-62
2021/12/29 04:28:25;;;;;;;20.70;13.07;;;;;;;7.03;100.00;98815.50;5070682;28;20212;-61
2021/12/29 04:30:55;;;;;;;12.53;9.83;;;;;;;6.93;100.00;98804.56;5069115;28;20220;-61
2021/12/29 04:33:24;;;;;;;15.53;9.83;;;;;;;6.93;100.00;98798.56;5067743;28;20750;-61
2021/12/29 04:35:52;;;;;;;13.70;9.40;;;;;;;6.93;100.00;98801.97;5067280;28;20783;-61
2021/12/29 04:38:21;;;;;;;23.47;13.43;;;;;;;6.77;100.00;98789.53;5069517;28;20224;-62
2021/12/29 04:40:49;;;;;;;12.17;9.60;;;;;;;6.82;100.00;98792.81;5068317;28;20276;-61
2021/12/29 04:43:16;;;;;;;11.60;9.43;;;;;;;6.87;100.00;98778.09;5066674;28;20239;-61
2021/12/29 04:45:43;;;;;;;14.47;9.63;;;;;;;6.85;100.00;98792.75;5066009;28;20231;-62
2021/12/29 04:48:13;;;;;;;13.33;10.07;;;;;;;6.79;100.00;98773.09;5068084;28;20219;-62
2021/12/29 04:50:50;;;;;;;11.87;9.40;;;;;;;6.83;100.00;98774.72;5069031;28;20247;-62
2021/12/29 04:53:17;;;;;;;12.77;9.30;;;;;;;6.76;100.00;98767.19;5067376;28;20684;-60
2021/12/29 04:55:45;;;;;;;10.77;9.63;;;;;;;6.84;100.00;98778.16;5068156;28;20220;-62
2021/12/29 04:58:13;;;;;;;15.67;9.67;;;;;;;6.76;100.00;98778.38;5066395;28;20223;-60
2021/12/29 05:00:41;;;;;;;11.23;9.30;;;;;;;6.75;100.00;98776.66;5067591;28;20310;-61
2021/12/29 05:03:08;;;;;;;9.30;8.33;;;;;;;6.82;100.00;98772.19;5068284;28;20216;-61
2021/12/29 05:05:53;;;;;;;12.77;8.00;;;;;;;6.78;100.00;98770.56;5069006;28;20227;-60
2021/12/29 05:08:29;;;;;;;10.57;8.00;;;;;;;6.66;100.00;98752.84;5067948;28;20310;-58
2021/12/29 05:11:02;;;;;;;11.60;8.90;;;;;;;6.83;100.00;98774.72;5067900;28;20363;-59
2021/12/29 05:13:33;;;;;;;13.53;9.10;;;;;;;6.89;100.00;98765.97;5066644;28;20605;-59
2021/12/29 05:16:00;;;;;;;32.07;11.87;;;;;;;7.03;100.00;98766.47;5068548;28;20311;-59
2021/12/29 05:18:29;;;;;;;14.33;9.27;;;;;;;7.03;100.00;98771.63;5066232;28;20327;-60
2021/12/29 05:20:57;;;;;;;19.87;8.60;;;;;;;7.01;100.00;98773.41;5069442;28;20715;-61
2021/12/29 05:23:26;;;;;;;11.80;8.90;;;;;;;7.03;100.00;98766.47;5069712;28;20234;-62
2021/12/29 05:25:54;;;;;;;12.07;8.70;;;;;;;6.96;100.00;98772.69;5070010;28;20723;-60
2021/12/29 05:28:23;;;;;;;13.50;7.80;;;;;;;6.77;100.00;98748.28;5069592;28;20314;-58
2021/12/29 05:30:50;;;;;;;9.63;8.63;;;;;;;6.95;100.00;98773.56;5068553;28;20216;-59
2021/12/29 05:33:17;;;;;;;9.20;8.10;;;;;;;6.88;100.00;98762.53;5070003;28;20224;-59
2021/12/29 05:35:44;;;;;;;9.87;8.20;;;;;;;6.77;100.00;98758.59;5069934;28;20766;-61
2021/12/29 05:38:12;;;;;;;10.03;8.30;;;;;;;6.89;100.00;98759.09;5069846;28;20229;-61
2021/12/29 05:40:40;;;;;;;12.83;9.37;;;;;;;6.82;100.00;98747.25;5070093;28;20226;-59
2021/12/29 05:43:07;;;;;;;12.50;8.70;;;;;;;6.78;100.00;98744.78;5069977;28;20224;-59
2021/12/29 05:45:34;;;;;;;13.87;8.70;;;;;;;6.75;100.00;98742.28;5069462;28;20311;-59
2021/12/29 05:48:01;;;;;;;14.70;8.87;;;;;;;6.73;100.00;98746.63;5069917;28;20334;-59
2021/12/29 05:50:30;;;;;;;12.23;9.43;;;;;;;6.69;100.00;98737.28;5069988;28;20727;-59
2021/12/29 05:52:58;;;;;;;12.90;9.63;;;;;;;6.65;100.00;98738.25;5069803;28;20219;-58
2021/12/29 05:55:25;;;;;;;13.37;9.53;;;;;;;6.54;100.00;98728.22;5069556;28;20226;-57
2021/12/29 05:57:54;;;;;;;11.07;8.87;;;;;;;6.51;100.00;98729.13;5069769;28;20306;-57
2021/12/29 06:00:23;;;;;;;12.43;9.00;;;;;;;6.59;100.00;98748.72;5068709;28;20228;-58
2021/12/29 06:02:51;;;;;;;13.47;9.47;;;;;;;6.39;100.00;98716.56;5069226;28;20658;-58
2021/12/29 06:05:19;;;;;;;10.37;8.70;;;;;;;6.62;100.00;98744.34;5068827;28;20239;-60
2021/12/29 06:07:46;;;;;;;13.70;9.73;;;;;;;6.55;100.00;98751.34;5065564;28;20226;-59
2021/12/29 06:10:14;;;;;;;13.63;10.07;;;;;;;6.55;100.00;98761.66;5068579;28;20230;-61
2021/12/29 06:12:42;;;;;;;13.80;10.47;;;;;;;6.48;100.00;98760.13;5068767;28;20234;-61
2021/12/29 06:15:11;;;;;;;15.20;10.13;;;;;;;6.54;100.00;98757.44;5069300;28;20591;-61
2021/12/29 06:17:39;;;;;;;16.73;12.07;;;;;;;6.60;100.00;98760.72;5068877;28;20303;-59
2021/12/29 06:20:08;;;;;;;17.47;12.07;;;;;;;6.62;100.00;98764.13;5068219;28;20237;-59
2021/12/29 06:22:36;;;;;;;14.33;11.07;;;;;;;6.65;100.00;98759.75;5068111;28;20223;-61
2021/12/29 06:25:03;;;;;;;12.77;10.63;;;;;;;6.67;100.00;98751.94;5069454;28;20226;-61
2021/12/29 06:27:31;;;;;;;12.80;9.90;;;;;;;6.72;100.00;98765.56;5069587;28;20228;-61
2021/12/29 06:29:58;;;;;;;13.90;11.20;;;;;;;6.68;100.00;98771.69;5068803;28;20220;-62
2021/12/29 06:32:27;;;;;;;14.37;10.23;;;;;;;6.53;100.00;98739.41;5069517;28;20242;-60
2021/12/29 06:34:54;;;;;;;12.73;9.80;;;;;;;6.65;100.00;98775.22;5069068;28;20618;-61
2021/12/29 06:37:21;;;;;;;16.57;11.00;;;;;;;6.64;100.00;98782.97;5069111;28;20696;-61
2021/12/29 06:39:48;;;;;;;14.07;11.07;;;;;;;6.59;100.00;98769.34;5069604;28;20688;-61
2021/12/29 06:42:16;;;;;;;15.90;10.73;;;;;;;6.69;100.00;98783.69;5069419;28;20219;-61
2021/12/29 06:44:44;;;;;;;17.67;11.93;;;;;;;6.74;100.00;98779.28;5069172;28;20230;-59
2021/12/29 06:47:11;;;;;;;13.83;10.90;;;;;;;6.81;100.00;98791.97;5069318;28;20228;-59
2021/12/29 06:49:41;;;;;;;17.87;13.03;;;;;;;6.81;100.00;98785.97;5069138;28;20700;-59
2021/12/29 06:52:08;;;;;;;19.80;12.43;;;;;;;6.87;100.00;98791.00;5069477;28;20319;-59
2021/12/29 06:54:36;;;;;;;14.43;10.63;;;;;;;6.84;100.00;98793.63;5069015;28;20220;-59
2021/12/29 06:57:03;;;;;;;16.10;11.77;;;;;;;6.79;100.00;98792.91;5069314;28;20257;-59
2021/12/29 06:59:30;;;;;;;15.03;10.80;;;;;;;6.76;100.00;98795.56;5069284;28;20223;-58
2021/12/29 07:01:57;;;;;;;20.90;13.90;;;;;;;6.85;100.00;98808.22;5072913;28;20299;-60
2021/12/29 07:04:25;;;;;;;17.73;13.67;;;;;;;6.85;100.00;98808.22;5072791;28;20636;-60
2021/12/29 07:06:54;;;;;;;19.57;13.77;;;;;;;6.76;100.00;98806.72;5072825;28;20318;-59
2021/12/29 07:09:22;;;;;;;17.73;12.30;;;;;;;6.63;100.00;98782.13;5072515;28;20263;-59
2021/12/29 07:11:50;;;;;;;17.10;12.40;;;;;;;6.80;100.00;98816.06;5072867;28;20307;-59
2021/12/29 07:14:19;;;;;;;18.80;12.40;;;;;;;6.77;100.00;98810.16;5072108;28;20638;-60
2021/12/29 07:16:47;;;;;;;19.53;12.73;;;;;;;6.66;100.00;98815.56;5072665;28;20668;-59
2021/12/29 07:19:15;;;;;;;20.60;13.17;;;;;;;6.81;100.00;98817.78;5072691;28;20299;-59
2021/12/29 07:21:42;;;;;;;21.10;13.93;;;;;;;6.64;100.00;98811.34;5073004;28;20223;-61
2021/12/29 07:24:11;;;;;;;25.80;16.20;;;;;;;6.53;100.00;98802.13;5072431;28;20315;-61
2021/12/29 07:26:38;;;;;;;23.83;15.07;;;;;;;6.68;100.00;98810.38;5072428;28;20223;-62
2021/12/29 07:29:07;;;;;;;27.17;17.87;;;;;;;6.69;100.00;98812.91;5071735;28;20230;-61
2021/12/29 07:31:34;;;;;;;24.63;15.37;;;;;;;6.51;100.00;98788.44;5072463;28;20234;-61
2021/12/29 07:34:01;;;;;;;28.63;17.73;;;;;;;6.61;100.00;98814.84;5072417;28;20223;-62
2021/12/29 07:36:28;;;;;;;42.47;24.63;;;;;;;6.64;100.00;98813.91;5071969;28;20242;-61
2021/12/29 07:38:55;;;;;;;32.47;19.97;;;;;;;6.68;100.00;98807.78;5072321;28;20706;-59
2021/12/29 07:41:23;;;;;;;26.90;16.83;;;;;;;6.54;100.00;98803.84;5072269;28;20679;-61
2021/12/29 07:43:51;;;;;;;33.20;16.73;;;;;;;6.53;100.00;98796.97;5071597;28;20226;-59
2021/12/29 07:46:18;;;;;;;33.93;21.00;;;;;;;6.69;100.00;98804.31;5063984;28;20698;-59
2021/12/29 07:48:45;;;;;;;29.73;19.00;;;;;;;6.67;100.00;98804.34;5054353;28;20216;-58
2021/12/29 07:51:15;;;;;;;28.83;19.70;;;;;;;6.68;100.00;98807.78;5061511;28;20687;-59
2021/12/29 07:53:42;;;;;;;24.40;15.90;;;;;;;6.76;100.00;98803.31;5052658;28;20315;-59
2021/12/29 07:56:09;;;;;;;23.43;16.17;;;;;;;6.75;100.00;98801.59;5052216;28;20252;-60
2021/12/29 07:58:37;;;;;;;26.33;16.80;;;;;;;6.80;100.00;98802.31;5051678;28;20220;-59
2021/12/29 08:01:04;;;;;;;27.00;17.30;;;;;;;6.90;100.00;98803.78;5052015;28;20220;-59
2021/12/29 08:03:32;;;;;;;31.73;18.83;;;;;;;6.88;100.00;98813.31;5052348;28;20226;-60
2021/12/29 08:05:59;;;;;;;27.93;17.93;;;;;;;6.89;100.00;98814.97;5052253;28;20597;-61
2021/12/29 08:08:26;;;;;;;21.00;14.93;;;;;;;6.94;100.00;98818.31;5062167;28;20307;-60
2021/12/29 08:10:53;;;;;;;23.23;15.03;;;;;;;6.98;100.00;98807.03;5071206;28;20299;-59
2021/12/29 08:13:20;;;;;;;26.07;15.57;;;;;;;6.97;100.00;98797.59;5067967;28;20222;-59
2021/12/29 08:15:49;;;;;;;20.93;13.70;;;;;;;7.10;100.00;98819.63;5071862;28;20303;-59
2021/12/29 08:18:16;;;;;;;23.17;14.03;;;;;;;7.11;100.00;98817.91;5067391;28;20307;-58
2021/12/29 08:20:43;;;;;;;20.70;14.27;;;;;;;7.15;100.00;98809.16;5051412;28;20256;-59
2021/12/29 08:23:11;;;;;;;26.60;16.27;;;;;;;7.18;100.00;98816.84;5056005;28;20224;-59
2021/12/29 08:25:39;;;;;;;32.20;18.07;;;;;;;7.17;100.00;98821.16;5068433;28;20308;-59
2021/12/29 08:28:06;;;;;;;34.30;17.07;;;;;;;7.18;100.00;98820.25;5059864;28;20224;-59
2021/12/29 08:30:36;;;;;;;41.10;22.00;;;;;;;7.19;100.00;98809.06;5051482;28;20216;-59
2021/12/29 08:33:04;;;;;;;37.27;20.17;;;;;;;7.30;100.00;98819.09;5051264;28;20224;-59
2021/12/29 08:35:32;;;;;;;42.47;22.13;;;;;;;7.29;100.00;98818.25;5050929;28;20236;-59
2021/12/29 08:37:59;;;;;;;34.47;20.43;;;;;;;7.37;100.00;98824.94;5063124;28;20218;-59
2021/12/29 08:40:29;;;;;;;38.43;20.43;;;;;;;7.26;100.00;98815.75;5070905;28;20224;-60
2021/12/29 08:42:58;;;;;;;31.83;18.93;;;;;;;7.18;100.00;98807.38;5070558;28;20216;-60
2021/12/29 08:45:27;;;;;;;29.73;17.97;;;;;;;7.31;100.00;98817.34;5070947;28;20223;-59
2021/12/29 08:47:58;;;;;;;33.03;19.70;;;;;;;7.33;100.00;98815.59;5070890;28;20326;-61
2021/12/29 08:50:29;;;;;;;25.77;17.73;;;;;;;7.36;100.00;98818.06;5070920;28;20729;-61
2021/12/29 08:52:57;;;;;;;33.77;21.03;;;;;;;7.31;100.00;98817.34;5070873;28;20231;-61
2021/12/29 08:55:24;;;;;;;27.83;17.67;;;;;;;7.37;100.00;98809.44;5071103;28;20695;-62
2021/12/29 08:57:51;;;;;;;28.50;19.07;;;;;;;7.44;100.00;98816.16;5070290;28;20735;-62
2021/12/29 09:00:19;;;;;;;38.70;23.77;;;;;;;7.52;100.00;98824.53;5070836;28;20581;-61
2021/12/29 09:02:46;;;;;;;36.93;21.03;;;;;;;7.49;100.00;98819.44;5070849;28;20308;-61
2021/12/29 09:05:16;;;;;;;37.97;22.27;;;;;;;7.48;100.00;98808.25;5070529;28;20716;-62
2021/12/29 09:07:45;;;;;;;28.93;19.90;;;;;;;7.48;100.00;98795.34;5070234;28;20223;-61
2021/12/29 09:10:13;;;;;;;28.90;18.13;;;;;;;7.56;100.00;98797.75;5070529;28;20303;-61
2021/12/29 09:12:41;;;;;;;18.97;14.00;;;;;;;7.60;100.00;98800.16;5069884;28;20302;-61
2021/12/29 09:15:09;;;;;;;24.03;15.43;;;;;;;7.36;100.00;98769.03;5070896;28;20230;-61
2021/12/29 09:17:36;;;;;;;21.33;15.57;;;;;;;7.43;100.00;98757.66;5069981;28;20224;-61
2021/12/29 09:20:04;;;;;;;22.17;14.30;;;;;;;7.53;100.00;98775.44;5069674;28;20327;-61
2021/12/29 09:22:31;;;;;;;17.53;14.07;;;;;;;7.27;100.00;98746.91;5050854;28;20224;-60
2021/12/29 09:25:00;;;;;;;19.23;14.00;;;;;;;7.49;100.00;98767.78;5050214;28;20635;-59
2021/12/29 09:27:27;;;;;;;23.80;17.40;;;;;;;7.53;100.00;98772.84;5065206;28;20264;-59
2021/12/29 09:29:55;;;;;;;25.60;18.40;;;;;;;7.61;100.00;98775.19;5070109;28;20220;-59
2021/12/29 09:32:23;;;;;;;30.93;20.83;;;;;;;7.55;100.00;98777.97;5069935;28;20307;-59
2021/12/29 09:34:51;;;;;;;35.17;21.87;;;;;;;7.51;100.00;98769.44;5069911;28;20243;-59
2021/12/29 09:37:18;;;;;;;42.70;24.77;;;;;;;7.42;100.00;98761.97;5059260;28;20228;-58
2021/12/29 09:39:45;;;;;;;34.57;22.00;;;;;;;7.48;100.00;98758.34;5069808;28;20219;-60
2021/12/29 09:42:13;;;;;;;30.73;21.43;;;;;;;7.52;100.00;98759.97;5069435;28;20226;-61
2021/12/29 09:44:40;;;;;;;26.90;19.90;;;;;;;7.43;100.00;98752.50;5070011;28;20216;-61
2021/12/29 09:47:08;;;;;;;31.37;20.20;;;;;;;7.57;100.00;98752.91;5070151;28;20235;-61
2021/12/29 09:49:37;;;;;;;33.27;20.47;;;;;;;7.55;100.00;98753.00;5070006;28;20226;-61
2021/12/29 09:52:05;;;;;;;29.67;20.63;;;;;;;7.60;100.00;98752.84;5069951;28;20223;-61
2021/12/29 09:54:32;;;;;;;35.63;21.70;;;;;;;7.53;100.00;98749.59;5069900;28;20314;-61
2021/12/29 09:57:00;;;;;;;31.03;20.17;;;;;;;7.58;100.00;98744.28;5068866;28;20219;-61
2021/12/29 09:59:28;;;;;;;25.67;17.23;;;;;;;7.48;100.00;98738.53;5060331;28;20239;-61
2021/12/29 10:01:57;;;;;;;25.53;19.10;;;;;;;7.54;100.00;98737.53;5070151;28;20287;-61
2021/12/29 10:04:24;;;;;;;28.43;18.37;;;;;;;7.39;100.00;98725.91;5070392;28;20282;-60
2021/12/29 10:06:51;;;;;;;26.17;18.40;;;;;;;7.46;100.00;98718.81;5070195;28;20203;-61
2021/12/29 10:09:19;;;;;;;29.17;18.20;;;;;;;7.48;100.00;98717.03;5069997;28;20279;-60
2021/12/29 10:11:47;;;;;;;29.27;20.57;;;;;;;7.44;100.00;98710.28;5069954;28;20286;-60
2021/12/29 10:14:17;;;;;;;29.47;21.33;;;;;;;7.52;100.00;98719.50;5067671;28;20199;-60
2021/12/29 10:16:48;;;;;;;36.77;22.60;;;;;;;7.52;100.00;98708.31;5069222;28;20224;-61
2021/12/29 10:19:16;;;;;;;28.33;18.87;;;;;;;7.49;100.00;98709.25;5057538;28;20306;-59
2021/12/29 10:21:45;;;;;;;32.40;19.77;;;;;;;7.42;100.00;98694.00;5069400;28;20310;-60
2021/12/29 10:24:13;;;;;;;29.33;20.37;;;;;;;7.49;100.00;98693.75;5069530;28;20608;-60
2021/12/29 10:26:45;;;;;;;29.13;19.53;;;;;;;7.53;100.00;98690.22;5069155;28;20311;-58
2021/12/29 10:29:14;;;;;;;31.43;21.00;;;;;;;7.45;100.00;98699.09;5068811;28;20251;-58
2021/12/29 10:31:44;;;;;;;33.07;21.13;;;;;;;7.51;100.00;98691.13;5069540;28;20307;-61
2021/12/29 10:34:14;;;;;;;43.23;25.00;;;;;;;7.59;100.00;98687.44;5069898;28;20634;-60
2021/12/29 10:36:45;;;;;;;40.70;23.77;;;;;;;7.45;100.00;98694.72;5073493;28;20273;-59
2021/12/29 10:39:17;;;;;;;37.03;21.47;;;;;;;7.47;100.00;98694.69;5073525;28;20229;-61
2021/12/29 10:41:47;;;;;;;33.77;20.77;;;;;;;7.53;100.00;98686.78;5073220;28;20219;-60
2021/12/29 10:44:15;;;;;;;35.30;21.50;;;;;;;7.63;100.00;98691.63;5072900;28;20230;-60
2021/12/29 10:46:42;;;;;;;35.03;24.20;;;;;;;7.60;100.00;98685.69;5073256;28;20219;-61
2021/12/29 10:49:10;;;;;;;35.37;24.07;;;;;;;7.75;100.00;98692.16;5070595;28;20654;-63
2021/12/29 10:51:42;;;;;;;35.23;23.13;;;;;;;7.81;100.00;98682.47;5072618;28;20310;-60
2021/12/29 10:54:13;;;;;;;35.83;24.13;;;;;;;7.89;100.00;98683.09;5071154;28;20641;-63
2021/12/29 10:56:42;;;;;;;41.40;24.83;;;;;;;7.98;100.00;98687.97;5071916;28;20192;-61
2021/12/29 10:59:20;;;;;;;40.17;23.87;;;;;;;8.07;100.00;98686.81;5071808;28;20271;-60
2021/12/29 11:01:48;;;;;;;26.77;19.60;;;;;;;7.98;100.00;98692.28;5071729;28;20203;-61
2021/12/29 11:04:16;;;;;;;33.43;20.67;;;;;;;7.97;100.00;98686.28;5069271;28;20195;-61
2021/12/29 11:06:47;;;;;;;26.90;19.60;;;;;;;7.99;100.00;98687.06;5071868;28;20200;-62
2021/12/29 11:09:16;;;;;;;39.03;20.30;;;;;;;8.00;100.00;98677.59;5069043;28;20212;-62
2021/12/29 11:11:46;;;;;;;31.80;18.90;;;;;;;8.06;100.00;98673.94;5071719;28;20196;-62
2021/12/29 11:14:16;;;;;;;29.30;19.53;;;;;;;8.15;100.00;98671.06;5068727;28;20202;-61
2021/12/29 11:16:45;;;;;;;33.57;22.43;;;;;;;8.10;100.00;98668.63;5071601;28;20199;-60
2021/12/29 11:19:12;;;;;;;33.37;21.27;;;;;;;8.05;100.00;98662.75;5071419;28;20192;-60
2021/12/29 11:21:42;;;;;;;35.90;22.47;;;;;;;8.13;100.00;98665.94;5071698;28;20196;-60
2021/12/29 11:24:17;;;;;;;33.00;21.27;;;;;;;8.18;100.00;98663.22;5072345;28;20584;-59